Galati, Romania
Current Conditions -  °F | °C
As of 5:00 AM on Sunday 26 Oct 2014 (Local Time) from LRTC Reporting Station
Broken Clouds Broken Clouds  
Wind Chill: 24°   Ceiling: 2300
Heat Index: 36°   Visibility: 6mi
Dew Point: 28°   Wind: 22mph
Humidity: 75%   Direction: 360°N
Pressure: 30.33"   Gusts: NA
Location:  45.44°N, 28.04°E
Report Text: LRTC 260200Z AUTO 36019KT 9999 BKN023 02/M02 Q1027 RERA
Loading
Personal Weather Stations






























Interactive Weather Map
Tropical Storm Tracking
New forecast layout! Learn more

10-Day Weather Forecast

Advertisements
Track Severe Weather on mobile